Time;durP1;ratioP1;P1;durP2;ratioP2;P2;SDS_P1;SDS_P2;PMS_P1;PMS_P2;Temp;Humidity;BMP_temperature;BMP_pressure;BME280_temperature;BME280_humidity;BME280_pressure;Samples;Min_cycle;Max_cycle;Signal;HPM_P1;HPM_P2
2021/06/25 00:01:34;;;;;;;2.22;1.67;;;16.30;99.90;;;;;;5051788;28;20064;-73
2021/06/25 00:04:00;;;;;;;1.23;1.05;;;16.30;99.90;;;;;;5052701;28;20125;-74
2021/06/25 00:06:25;;;;;;;1.75;1.10;;;16.30;99.90;;;;;;5052480;28;20662;-74
2021/06/25 00:08:51;;;;;;;5.30;1.60;;;16.30;99.90;;;;;;5052601;28;20029;-75
2021/06/25 00:11:17;;;;;;;2.50;1.52;;;16.40;99.90;;;;;;5051630;28;20036;-75
2021/06/25 00:13:42;;;;;;;6.38;1.60;;;16.40;99.90;;;;;;5052344;28;20082;-73
2021/06/25 00:16:08;;;;;;;3.25;1.40;;;16.50;99.90;;;;;;5052273;28;20068;-73
2021/06/25 00:18:34;;;;;;;2.15;1.73;;;16.50;99.90;;;;;;5052354;28;20025;-75
2021/06/25 00:21:00;;;;;;;1.58;1.48;;;16.40;99.90;;;;;;5033733;28;20064;-74
2021/06/25 00:23:25;;;;;;;1.70;1.60;;;16.40;99.90;;;;;;5052223;28;20029;-75
2021/06/25 00:25:51;;;;;;;3.88;1.73;;;16.40;99.90;;;;;;5034213;28;20530;-74
2021/06/25 00:28:17;;;;;;;4.35;1.92;;;16.40;99.90;;;;;;5034132;28;20036;-74
2021/06/25 00:30:43;;;;;;;4.75;1.65;;;16.50;99.90;;;;;;5051091;28;20482;-75
2021/06/25 00:33:09;;;;;;;1.98;1.65;;;16.40;99.90;;;;;;5033636;28;20040;-75
2021/06/25 00:35:37;;;;;;;4.82;1.67;;;16.40;99.90;;;;;;5051867;28;20013;-74
2021/06/25 00:38:06;;;;;;;1.92;1.75;;;16.40;99.90;;;;;;5051941;28;20017;-75
2021/06/25 00:40:33;;;;;;;2.05;1.95;;;16.30;99.90;;;;;;5051179;28;20024;-74
2021/06/25 00:42:59;;;;;;;2.58;1.40;;;16.30;99.90;;;;;;5051692;28;20083;-74
2021/06/25 00:45:24;;;;;;;3.90;1.50;;;16.20;99.90;;;;;;5051632;28;20033;-75
2021/06/25 00:47:51;;;;;;;1.55;1.45;;;16.10;99.90;;;;;;5051578;28;20032;-75
2021/06/25 00:50:20;;;;;;;4.13;1.83;;;16.00;99.90;;;;;;5033081;28;20047;-74
2021/06/25 00:52:45;;;;;;;2.30;2.10;;;16.20;99.90;;;;;;5033564;28;20036;-73
2021/06/25 00:55:11;;;;;;;2.97;1.90;;;16.30;99.90;;;;;;5051674;28;20021;-75
2021/06/25 00:57:37;;;;;;;2.33;2.13;;;16.30;99.90;;;;;;5051240;28;20028;-75
2021/06/25 01:00:07;;;;;;;2.30;2.05;;;16.40;99.90;;;;;;5052046;28;20441;-73
2021/06/25 01:02:33;;;;;;;3.00;1.88;;;16.30;99.90;;;;;;5053266;28;20459;-73
2021/06/25 01:04:59;;;;;;;3.13;2.05;;;16.30;99.90;;;;;;5054720;28;20112;-73
2021/06/25 01:07:25;;;;;;;5.97;1.83;;;16.40;99.90;;;;;;5054856;28;20078;-73
2021/06/25 01:09:52;;;;;;;2.55;2.22;;;16.20;99.90;;;;;;5053879;28;20021;-73
2021/06/25 01:12:18;;;;;;;2.10;2.00;;;16.20;99.90;;;;;;5054022;28;20017;-73
2021/06/25 01:14:43;;;;;;;3.97;2.45;;;16.30;99.90;;;;;;5054397;28;20020;-73
2021/06/25 01:17:33;;;;;;;7.93;3.10;;;16.50;99.90;;;;;;5067637;28;20054;-73
2021/06/25 01:20:02;;;;;;;3.10;2.90;;;16.60;99.90;;;;;;5073318;28;20100;-73
2021/06/25 01:22:36;;;;;;;6.50;3.03;;;16.40;99.90;;;;;;5074036;28;20021;-73
2021/06/25 01:25:07;;;;;;;3.28;2.97;;;16.40;99.90;;;;;;5055964;28;20032;-72
2021/06/25 01:27:34;;;;;;;4.22;2.97;;;16.40;99.90;;;;;;5073651;28;20020;-73
2021/06/25 01:30:00;;;;;;;4.18;3.55;;;16.50;99.90;;;;;;5072838;28;20036;-73
2021/06/25 01:32:26;;;;;;;5.78;3.00;;;16.50;99.90;;;;;;5073679;28;20436;-73
2021/06/25 01:34:52;;;;;;;5.20;2.92;;;16.50;99.90;;;;;;5073732;28;20096;-73
2021/06/25 01:37:19;;;;;;;7.47;2.67;;;16.50;99.90;;;;;;5073600;28;20031;-73
2021/06/25 01:39:48;;;;;;;2.80;2.60;;;16.30;99.90;;;;;;5071298;28;20029;-73
2021/06/25 01:42:14;;;;;;;3.40;2.20;;;16.10;99.90;;;;;;5071480;28;20040;-73
2021/06/25 01:44:40;;;;;;;4.30;2.53;;;16.00;99.90;;;;;;5055440;28;20020;-74
2021/06/25 01:47:05;;;;;;;1.90;1.80;;;16.00;99.90;;;;;;5061778;28;20154;-73
2021/06/25 01:49:32;;;;;;;2.08;1.98;;;16.00;99.90;;;;;;5054845;28;20032;-73
2021/06/25 01:51:58;;;;;;;4.60;2.08;;;16.00;99.90;;;;;;5055131;28;20021;-73
2021/06/25 01:54:24;;;;;;;2.33;2.15;;;16.00;99.90;;;;;;5055299;28;20048;-73
2021/06/25 01:56:50;;;;;;;2.60;2.47;;;16.10;99.90;;;;;;5055018;28;20039;-72
2021/06/25 01:59:16;;;;;;;3.35;2.47;;;16.30;99.90;;;;;;5055392;28;20105;-73
2021/06/25 02:01:42;;;;;;;5.05;3.15;;;16.30;99.90;;;;;;5036684;28;20049;-73
2021/06/25 02:04:08;;;;;;;4.38;2.30;;;16.30;99.90;;;;;;5054978;28;20532;-72
2021/06/25 02:06:33;;;;;;;2.03;1.92;;;16.30;99.90;;;;;;5055010;28;20112;-73
2021/06/25 02:09:01;;;;;;;2.10;2.00;;;16.10;99.90;;;;;;5037127;28;20033;-73
2021/06/25 02:11:27;;;;;;;4.60;1.90;;;16.10;99.90;;;;;;5054357;28;20119;-73
2021/06/25 02:13:53;;;;;;;3.33;1.92;;;16.10;99.90;;;;;;5054989;28;20021;-73
2021/06/25 02:16:19;;;;;;;2.50;1.67;;;16.00;99.90;;;;;;5054675;28;20029;-73
2021/06/25 02:18:45;;;;;;;2.03;1.90;;;16.00;99.90;;;;;;5038029;28;20084;-72
2021/06/25 02:21:10;;;;;;;4.93;2.25;;;16.00;99.90;;;;;;5057216;28;20053;-72
2021/06/25 02:23:36;;;;;;;2.33;2.13;;;16.20;99.90;;;;;;5056339;28;20545;-73
2021/06/25 02:26:03;;;;;;;5.28;2.22;;;16.10;99.90;;;;;;5054807;28;20033;-73
2021/06/25 02:28:29;;;;;;;2.28;2.10;;;16.10;99.90;;;;;;5054711;28;20399;-73
2021/06/25 02:30:55;;;;;;;2.53;2.03;;;16.10;99.90;;;;;;5054147;28;20051;-74
2021/06/25 02:33:22;;;;;;;2.03;1.90;;;16.10;99.90;;;;;;5054630;28;20032;-73
2021/06/25 02:35:47;;;;;;;3.05;2.03;;;16.10;99.90;;;;;;5054464;28;20104;-72
2021/06/25 02:38:13;;;;;;;7.35;2.50;;;16.10;99.90;;;;;;5036804;28;20216;-73
2021/06/25 02:40:39;;;;;;;7.53;2.10;;;16.10;99.90;;;;;;5054056;28;20443;-73
2021/06/25 02:43:05;;;;;;;2.95;1.75;;;16.10;99.90;;;;;;5054481;28;20033;-72
2021/06/25 02:45:30;;;;;;;2.90;2.08;;;16.10;99.90;;;;;;5054409;28;20489;-74
2021/06/25 02:47:56;;;;;;;3.47;2.33;;;16.00;99.90;;;;;;5074220;28;20103;-73
2021/06/25 02:50:22;;;;;;;4.85;2.08;;;16.00;99.90;;;;;;5073770;28;20032;-72
2021/06/25 02:52:47;;;;;;;3.10;1.75;;;16.00;99.90;;;;;;5074350;28;20482;-73
2021/06/25 02:55:13;;;;;;;5.57;1.73;;;16.00;99.90;;;;;;5074050;28;20024;-73
2021/06/25 02:57:40;;;;;;;9.00;2.45;;;16.00;99.90;;;;;;5074832;28;20033;-72
2021/06/25 03:00:09;;;;;;;2.97;1.90;;;16.10;99.90;;;;;;5073596;28;20028;-73
2021/06/25 03:02:34;;;;;;;2.08;1.67;;;16.10;99.90;;;;;;5073941;28;20051;-72
2021/06/25 03:05:00;;;;;;;4.25;1.67;;;16.00;99.90;;;;;;5080382;28;20032;-72
2021/06/25 03:07:25;;;;;;;2.67;1.60;;;16.00;99.90;;;;;;5080629;28;20032;-74
2021/06/25 03:09:51;;;;;;;4.93;1.70;;;15.90;99.90;;;;;;5055210;28;20032;-73
2021/06/25 03:12:17;;;;;;;5.55;1.92;;;15.90;99.90;;;;;;5073876;28;20050;-73
2021/06/25 03:14:43;;;;;;;2.35;1.52;;;16.00;99.90;;;;;;5073718;28;20020;-73
2021/06/25 03:17:09;;;;;;;3.90;2.00;;;15.90;99.90;;;;;;5059727;28;20036;-72
2021/06/25 03:19:35;;;;;;;4.25;1.80;;;15.90;99.90;;;;;;5053181;28;20464;-73
2021/06/25 03:22:01;;;;;;;3.47;1.60;;;15.90;99.90;;;;;;5053529;28;20068;-73
2021/06/25 03:24:27;;;;;;;1.50;1.40;;;15.90;99.90;;;;;;5053717;28;20032;-73
2021/06/25 03:26:53;;;;;;;3.45;1.52;;;15.80;99.90;;;;;;5053791;28;20021;-73
2021/06/25 03:29:18;;;;;;;2.40;1.65;;;15.70;99.90;;;;;;5053453;28;20055;-74
2021/06/25 03:31:44;;;;;;;1.33;1.23;;;15.70;99.90;;;;;;5034736;28;20028;-74
2021/06/25 03:34:09;;;;;;;1.58;1.48;;;15.60;99.90;;;;;;5053414;28;20107;-72
2021/06/25 03:36:35;;;;;;;1.52;1.27;;;15.60;99.90;;;;;;5053334;28;20082;-74
2021/06/25 03:39:01;;;;;;;3.25;1.55;;;15.60;99.90;;;;;;5053155;28;20098;-73
2021/06/25 03:41:27;;;;;;;3.72;1.40;;;15.70;99.90;;;;;;5052644;28;20048;-72
2021/06/25 03:43:52;;;;;;;4.30;1.50;;;15.60;99.90;;;;;;5053152;28;20037;-73
2021/06/25 03:46:20;;;;;;;1.52;1.30;;;15.60;99.90;;;;;;5041363;28;20059;-73
2021/06/25 03:48:45;;;;;;;1.83;1.50;;;15.70;99.90;;;;;;5073469;28;20455;-73
2021/06/25 03:51:11;;;;;;;2.38;1.33;;;15.70;99.90;;;;;;5072554;28;20108;-72
2021/06/25 03:53:37;;;;;;;4.40;1.48;;;15.70;99.90;;;;;;5073680;28;20020;-74
2021/06/25 03:56:12;;;;;;;1.33;1.23;;;15.70;99.90;;;;;;5072809;28;20428;-73
2021/06/25 03:58:46;;;;;;;7.60;1.55;;;15.80;99.90;;;;;;5073097;28;20020;-73
2021/06/25 04:01:12;;;;;;;1.73;1.63;;;15.70;99.90;;;;;;5072198;28;20028;-74
2021/06/25 04:03:39;;;;;;;4.30;1.60;;;15.70;99.90;;;;;;5072886;28;20099;-73
2021/06/25 04:06:05;;;;;;;2.47;1.33;;;15.70;99.90;;;;;;5072339;28;20032;-73
2021/06/25 04:08:32;;;;;;;3.90;1.23;;;15.80;99.90;;;;;;5072199;28;20383;-75
2021/06/25 04:10:59;;;;;;;2.60;1.63;;;15.80;99.90;;;;;;5071963;28;20016;-74
2021/06/25 04:13:25;;;;;;;3.15;1.20;;;15.90;99.90;;;;;;5054926;28;20029;-73
2021/06/25 04:15:52;;;;;;;1.23;1.13;;;15.80;99.90;;;;;;5072333;28;20036;-75
2021/06/25 04:18:18;;;;;;;2.22;1.20;;;15.90;99.90;;;;;;5072502;28;20017;-72
2021/06/25 04:20:45;;;;;;;2.13;1.25;;;15.90;99.90;;;;;;5041509;28;20446;-71
2021/06/25 04:23:11;;;;;;;1.90;1.40;;;15.90;99.90;;;;;;5061104;28;20036;-72
2021/06/25 04:25:37;;;;;;;4.13;1.20;;;16.10;99.90;;;;;;5035433;28;20032;-73
2021/06/25 04:28:03;;;;;;;1.13;1.13;;;16.20;99.90;;;;;;5046951;28;20037;-74
2021/06/25 04:30:29;;;;;;;1.27;1.17;;;16.20;99.90;;;;;;5051705;28;20025;-74
2021/06/25 04:32:57;;;;;;;1.65;1.30;;;16.30;99.90;;;;;;5053491;28;20036;-75
2021/06/25 04:35:23;;;;;;;1.80;1.10;;;16.40;99.90;;;;;;5053375;28;20087;-72
2021/06/25 04:37:49;;;;;;;1.67;1.10;;;16.50;99.90;;;;;;5052442;28;20016;-74
2021/06/25 04:40:15;;;;;;;1.52;1.20;;;16.90;99.90;;;;;;5051350;28;20509;-71
2021/06/25 04:42:41;;;;;;;4.70;1.48;;;16.90;99.90;;;;;;5051085;28;20029;-72
2021/06/25 04:45:07;;;;;;;3.53;0.90;;;16.80;99.90;;;;;;5051762;28;20025;-72
2021/06/25 04:47:33;;;;;;;2.13;0.95;;;16.90;99.90;;;;;;5051302;28;20029;-72
2021/06/25 04:49:59;;;;;;;1.38;1.27;;;16.90;99.90;;;;;;5032935;28;20483;-71
2021/06/25 04:52:24;;;;;;;2.13;1.20;;;16.80;99.90;;;;;;5033239;28;20463;-71
2021/06/25 04:54:50;;;;;;;0.90;0.90;;;16.70;99.90;;;;;;5051440;28;20029;-73
2021/06/25 04:57:16;;;;;;;2.08;0.80;;;16.50;99.90;;;;;;5051194;28;20025;-72
2021/06/25 04:59:41;;;;;;;1.10;0.93;;;16.50;99.90;;;;;;5050703;28;20021;-72
2021/06/25 05:02:07;;;;;;;1.42;1.00;;;16.50;99.90;;;;;;5050712;28;20108;-72
2021/06/25 05:04:33;;;;;;;3.38;0.90;;;16.40;99.90;;;;;;5051445;28;20025;-74
2021/06/25 05:06:59;;;;;;;1.58;0.90;;;16.40;99.90;;;;;;5051260;28;20025;-73
2021/06/25 05:09:24;;;;;;;1.45;0.73;;;16.30;99.90;;;;;;5032936;28;20399;-75
2021/06/25 05:11:50;;;;;;;1.95;1.20;;;16.30;99.90;;;;;;5050898;28;20018;-75
2021/06/25 05:14:16;;;;;;;1.17;0.77;;;16.30;99.90;;;;;;5051017;28;20020;-73
2021/06/25 05:16:42;;;;;;;3.40;0.82;;;16.10;99.90;;;;;;5050910;28;20025;-74
2021/06/25 05:19:07;;;;;;;0.90;0.90;;;16.10;99.90;;;;;;5051159;28;20032;-73
2021/06/25 05:21:33;;;;;;;1.20;0.80;;;15.90;99.90;;;;;;5052004;28;20029;-72
2021/06/25 05:23:59;;;;;;;1.85;0.80;;;15.70;99.90;;;;;;5053655;28;20036;-73
2021/06/25 05:26:24;;;;;;;1.00;1.00;;;15.70;99.90;;;;;;5053907;28;20020;-74
2021/06/25 05:28:50;;;;;;;1.48;1.10;;;15.80;99.90;;;;;;5054195;28;20024;-75
2021/06/25 05:31:16;;;;;;;0.90;0.90;;;15.90;99.90;;;;;;5036537;28;20029;-74
2021/06/25 05:33:42;;;;;;;1.98;1.15;;;16.10;99.90;;;;;;5055188;28;20025;-71
2021/06/25 05:36:09;;;;;;;1.05;0.88;;;16.30;99.90;;;;;;5056423;28;20032;-74
2021/06/25 05:38:35;;;;;;;1.67;0.98;;;16.20;99.90;;;;;;5052328;28;20109;-75
2021/06/25 05:41:00;;;;;;;1.23;1.13;;;16.30;99.90;;;;;;5054703;28;20490;-74
2021/06/25 05:43:26;;;;;;;0.80;0.80;;;16.30;99.90;;;;;;5054485;28;20021;-75
2021/06/25 05:45:52;;;;;;;0.70;0.70;;;16.60;99.90;;;;;;5055078;28;20065;-74
2021/06/25 05:48:18;;;;;;;1.27;0.93;;;16.50;99.90;;;;;;5036488;28;20029;-75
2021/06/25 05:50:43;;;;;;;1.52;1.00;;;16.10;99.90;;;;;;5052336;28;20029;-73
2021/06/25 05:53:09;;;;;;;1.60;1.50;;;16.00;99.90;;;;;;5054243;28;20396;-74
2021/06/25 05:55:35;;;;;;;1.17;1.05;;;16.30;99.90;;;;;;5053696;28;20017;-74
2021/06/25 05:58:00;;;;;;;1.27;0.90;;;16.30;99.90;;;;;;5052666;28;20032;-75
2021/06/25 06:00:26;;;;;;;1.00;1.00;;;16.10;99.90;;;;;;5050892;28;20491;-73
2021/06/25 06:02:52;;;;;;;1.15;0.93;;;16.30;99.90;;;;;;5050972;28;20045;-75
2021/06/25 06:05:18;;;;;;;6.25;0.98;;;16.50;99.90;;;;;;5052590;28;20060;-74
2021/06/25 06:07:44;;;;;;;0.75;0.70;;;16.60;99.90;;;;;;5050975;28;20028;-74
2021/06/25 06:10:10;;;;;;;3.50;1.02;;;16.50;99.90;;;;;;5050118;28;20024;-74
2021/06/25 06:12:36;;;;;;;0.70;0.70;;;16.70;99.90;;;;;;5064251;28;20020;-75
2021/06/25 06:15:02;;;;;;;1.00;0.70;;;16.80;99.90;;;;;;5052141;28;20031;-74
2021/06/25 06:17:28;;;;;;;1.08;0.98;;;16.60;99.90;;;;;;5050922;28;20100;-74
2021/06/25 06:19:55;;;;;;;0.80;0.80;;;16.40;99.90;;;;;;5050502;28;20539;-74
2021/06/25 06:33:24;;;;;;;1.00;0.90;;;16.50;99.90;;;;;;5038058;28;20039;-75
2021/06/25 06:35:50;;;;;;;1.25;0.80;;;16.40;99.90;;;;;;5054231;28;20028;-74
2021/06/25 06:38:17;;;;;;;2.70;0.68;;;16.50;99.90;;;;;;5054492;28;20104;-73
2021/06/25 06:40:42;;;;;;;0.98;0.85;;;16.50;99.90;;;;;;5033980;28;20029;-75
2021/06/25 06:43:08;;;;;;;1.40;0.63;;;16.50;99.90;;;;;;5045062;28;20028;-75
2021/06/25 06:45:35;;;;;;;1.02;0.73;;;16.60;99.90;;;;;;5036259;28;20391;-74
2021/06/25 06:48:01;;;;;;;2.65;0.90;;;16.70;99.90;;;;;;5055577;28;20032;-74
2021/06/25 06:50:26;;;;;;;3.25;0.85;;;16.50;99.90;;;;;;5053853;28;20029;-74
2021/06/25 06:52:52;;;;;;;0.80;0.80;;;16.70;99.90;;;;;;5053118;28;20498;-75
2021/06/25 06:55:19;;;;;;;4.13;0.70;;;16.90;99.90;;;;;;5054604;28;20063;-73
2021/06/25 06:57:45;;;;;;;1.58;0.60;;;17.20;99.90;;;;;;5035538;28;20024;-74
2021/06/25 07:00:12;;;;;;;2.40;0.88;;;17.10;99.90;;;;;;5053037;28;20044;-74
2021/06/25 07:02:39;;;;;;;1.02;0.90;;;16.80;99.90;;;;;;5056710;28;20020;-75
2021/06/25 07:05:07;;;;;;;0.70;0.70;;;16.90;99.90;;;;;;5060111;28;20024;-75
2021/06/25 07:07:33;;;;;;;0.50;0.50;;;17.20;99.90;;;;;;5068371;28;20048;-76
2021/06/25 07:09:59;;;;;;;1.75;0.90;;;17.30;99.90;;;;;;5072832;28;20052;-74
2021/06/25 07:12:25;;;;;;;0.70;0.70;;;17.40;99.90;;;;;;5061006;28;20029;-75
2021/06/25 07:14:51;;;;;;;1.45;0.60;;;17.30;99.90;;;;;;5035701;28;20025;-74
2021/06/25 07:17:16;;;;;;;1.55;0.63;;;17.10;99.90;;;;;;5035809;28;20029;-74
2021/06/25 07:19:42;;;;;;;3.13;0.60;;;17.20;99.90;;;;;;5035598;28;20068;-74
2021/06/25 07:22:08;;;;;;;0.55;0.55;;;17.30;99.90;;;;;;5053977;28;20104;-74
2021/06/25 07:24:34;;;;;;;0.63;0.63;;;17.30;99.90;;;;;;5035287;28;20071;-74
2021/06/25 07:26:59;;;;;;;0.60;0.60;;;17.70;99.90;;;;;;5052863;28;20083;-76
2021/06/25 07:29:26;;;;;;;1.80;0.65;;;17.90;99.90;;;;;;5034391;28;20036;-74
2021/06/25 07:31:52;;;;;;;0.57;0.57;;;17.60;99.90;;;;;;5035195;28;20125;-76
2021/06/25 07:34:18;;;;;;;0.70;0.60;;;17.50;99.90;;;;;;5053636;28;20336;-75
2021/06/25 07:36:44;;;;;;;1.13;0.50;;;17.40;99.90;;;;;;5038379;28;20430;-76
2021/06/25 07:39:10;;;;;;;4.30;1.05;;;17.40;99.90;;;;;;5015930;28;20073;-79
2021/06/25 07:41:37;;;;;;;0.60;0.60;;;17.40;99.90;;;;;;5039658;28;20497;-77
2021/06/25 07:44:03;;;;;;;0.63;0.63;;;17.20;99.90;;;;;;5054728;28;20031;-76
2021/06/25 07:46:29;;;;;;;2.17;0.60;;;17.00;99.90;;;;;;5036541;28;20118;-77
2021/06/25 07:48:55;;;;;;;0.55;0.55;;;17.00;99.90;;;;;;5056730;28;20068;-77
2021/06/25 07:51:21;;;;;;;2.85;0.73;;;17.10;99.90;;;;;;5055487;28;20040;-76
2021/06/25 07:53:47;;;;;;;1.90;0.70;;;17.30;99.90;;;;;;5055663;28;20036;-76
2021/06/25 07:56:14;;;;;;;0.68;0.68;;;17.40;99.90;;;;;;5057242;28;20033;-75
2021/06/25 07:58:40;;;;;;;0.60;0.60;;;17.70;99.90;;;;;;5055556;28;20025;-76
2021/06/25 08:01:06;;;;;;;0.77;0.60;;;17.50;99.90;;;;;;5036228;28;20037;-76
2021/06/25 08:03:32;;;;;;;3.80;0.70;;;17.30;99.90;;;;;;5053241;28;20024;-76
2021/06/25 08:05:57;;;;;;;0.57;0.57;;;17.20;99.90;;;;;;5035333;28;20047;-74
2021/06/25 08:08:23;;;;;;;2.03;0.77;;;17.40;99.90;;;;;;5052418;28;20033;-74
2021/06/25 08:10:49;;;;;;;0.70;0.70;;;17.50;99.90;;;;;;5051780;28;20040;-75
2021/06/25 08:13:14;;;;;;;0.65;0.63;;;17.70;99.90;;;;;;5052468;28;20047;-74
2021/06/25 08:15:40;;;;;;;0.73;0.70;;;17.80;99.90;;;;;;5052224;28;20472;-73
2021/06/25 08:18:06;;;;;;;0.85;0.82;;;18.00;99.90;;;;;;5054044;28;20025;-75
2021/06/25 08:20:31;;;;;;;0.75;0.75;;;18.00;99.90;;;;;;5053157;28;20788;-76
2021/06/25 08:22:57;;;;;;;0.88;0.75;;;18.00;99.90;;;;;;5035192;28;20033;-74
2021/06/25 08:25:24;;;;;;;2.80;0.80;;;18.00;99.90;;;;;;5052130;28;20025;-75
2021/06/25 08:27:50;;;;;;;2.22;0.70;;;18.20;99.90;;;;;;5034253;28;20471;-75
2021/06/25 08:30:17;;;;;;;1.42;0.68;;;18.50;99.90;;;;;;5052007;28;20031;-75
2021/06/25 08:32:43;;;;;;;2.47;0.90;;;18.20;99.90;;;;;;5034210;28;20079;-76
2021/06/25 08:35:10;;;;;;;0.93;0.88;;;18.30;99.90;;;;;;5052383;28;20025;-76
2021/06/25 08:37:36;;;;;;;2.67;0.70;;;18.40;99.90;;;;;;5051858;28;20025;-75
2021/06/25 08:40:04;;;;;;;0.88;0.63;;;18.20;99.90;;;;;;5051635;28;20482;-74
2021/06/25 08:42:30;;;;;;;2.25;0.60;;;18.50;99.90;;;;;;5051899;28;20029;-74
2021/06/25 08:44:58;;;;;;;0.50;0.50;;;18.60;99.90;;;;;;5052148;28;20386;-74
2021/06/25 08:47:26;;;;;;;0.80;0.80;;;18.80;99.90;;;;;;5052452;28;20542;-74
2021/06/25 08:49:53;;;;;;;0.57;0.57;;;18.60;99.90;;;;;;5051491;28;20078;-75
2021/06/25 08:52:19;;;;;;;0.60;0.60;;;18.70;99.90;;;;;;5051707;28;20446;-76
2021/06/25 08:54:44;;;;;;;0.50;0.50;;;18.90;99.90;;;;;;5051243;28;20033;-74
2021/06/25 08:57:10;;;;;;;0.50;0.50;;;19.00;99.90;;;;;;5051683;28;20143;-74
2021/06/25 08:59:36;;;;;;;0.88;0.80;;;18.90;99.90;;;;;;5051263;28;20387;-75
2021/06/25 09:02:03;;;;;;;4.95;1.02;;;19.10;99.90;;;;;;5051479;28;20074;-76
2021/06/25 09:04:36;;;;;;;0.68;0.68;;;18.80;99.90;;;;;;5051415;28;20036;-75
2021/06/25 09:07:04;;;;;;;1.35;0.68;;;19.10;99.90;;;;;;5051644;28;20108;-73
2021/06/25 09:09:47;;;;;;;1.13;0.80;;;19.00;99.90;;;;;;5050906;28;20029;-74
2021/06/25 09:12:21;;;;;;;1.73;0.82;;;19.20;99.90;;;;;;5050959;28;20090;-76
2021/06/25 09:15:00;;;;;;;1.73;1.08;;;19.50;99.90;;;;;;5051389;28;20059;-75
2021/06/25 09:17:26;;;;;;;2.58;0.73;;;19.20;99.90;;;;;;5051380;28;20070;-76
2021/06/25 09:19:52;;;;;;;1.02;0.90;;;19.00;99.90;;;;;;5050648;28;20048;-74
2021/06/25 09:22:18;;;;;;;0.90;0.70;;;19.10;99.90;;;;;;5051509;28;20029;-74
2021/06/25 09:24:57;;;;;;;0.80;0.80;;;19.10;99.90;;;;;;5052100;28;20099;-74
2021/06/25 09:27:23;;;;;;;0.80;0.80;;;18.80;99.90;;;;;;5051021;28;20509;-74
2021/06/25 09:29:49;;;;;;;0.90;0.90;;;18.80;99.90;;;;;;5050534;28;20029;-74
2021/06/25 09:32:15;;;;;;;0.75;0.75;;;18.90;99.90;;;;;;5051254;28;20082;-73
2021/06/25 09:34:45;;;;;;;0.57;0.57;;;19.00;99.90;;;;;;5052221;28;20032;-73
2021/06/25 09:37:14;;;;;;;2.05;0.85;;;19.10;99.90;;;;;;5050701;28;20036;-74
2021/06/25 09:39:43;;;;;;;0.70;0.70;;;19.30;99.90;;;;;;5050867;28;20052;-75
2021/06/25 09:42:17;;;;;;;2.15;0.95;;;19.20;99.90;;;;;;5050869;28;20446;-74
2021/06/25 09:45:03;;;;;;;1.25;0.90;;;19.10;99.90;;;;;;5051156;28;20108;-74
2021/06/25 09:47:31;;;;;;;0.80;0.80;;;19.10;99.90;;;;;;5050975;28;20124;-74
2021/06/25 09:50:17;;;;;;;1.13;0.80;;;19.30;99.90;;;;;;5050470;28;20025;-74
2021/06/25 09:53:03;;;;;;;1.25;0.90;;;19.40;99.90;;;;;;5050836;28;20544;-75
2021/06/25 09:55:56;;;;;;;1.00;0.90;;;19.50;99.90;;;;;;5051177;28;20025;-74
2021/06/25 09:58:44;;;;;;;0.80;0.80;;;19.50;99.90;;;;;;5033010;28;20491;-75
2021/06/25 10:01:28;;;;;;;1.77;0.90;;;19.30;99.90;;;;;;5050457;28;20024;-74
2021/06/25 10:03:58;;;;;;;0.95;0.95;;;19.10;99.90;;;;;;5051564;28;20021;-74
2021/06/25 10:06:29;;;;;;;1.08;0.80;;;19.10;99.90;;;;;;5053881;28;20479;-74
2021/06/25 10:08:56;;;;;;;0.88;0.88;;;19.00;99.90;;;;;;5052915;28;20569;-74
2021/06/25 10:11:32;;;;;;;1.42;0.80;;;18.90;99.90;;;;;;5035435;28;20039;-73
2021/06/25 10:14:05;;;;;;;0.90;0.90;;;18.80;99.90;;;;;;5054106;28;20048;-71
2021/06/25 10:16:31;;;;;;;1.35;1.30;;;18.90;99.90;;;;;;5054595;28;20027;-71
2021/06/25 10:18:58;;;;;;;1.15;1.15;;;18.80;99.90;;;;;;5053937;28;22034;-76
2021/06/25 10:21:27;;;;;;;4.00;1.33;;;18.60;99.90;;;;;;5053937;28;20475;-73
2021/06/25 10:23:57;;;;;;;1.50;1.40;;;18.40;99.90;;;;;;5054306;28;20056;-74
2021/06/25 10:26:24;;;;;;;1.17;1.15;;;18.50;99.90;;;;;;5054487;28;20123;-77
2021/06/25 10:28:52;;;;;;;3.75;1.23;;;18.60;99.90;;;;;;5054429;28;20036;-75
2021/06/25 10:31:21;;;;;;;0.90;0.90;;;19.00;99.90;;;;;;5035833;28;20052;-75
2021/06/25 10:33:47;;;;;;;0.95;0.95;;;19.00;99.90;;;;;;5054279;28;20032;-76
2021/06/25 10:36:15;;;;;;;0.93;0.80;;;19.00;99.90;;;;;;5042470;28;20068;-75
2021/06/25 10:38:43;;;;;;;3.45;0.93;;;18.70;99.90;;;;;;5033782;28;20029;-76
2021/06/25 10:41:11;;;;;;;1.25;0.88;;;18.50;99.90;;;;;;5036522;28;20030;-77
2021/06/25 10:43:52;;;;;;;0.80;0.80;;;18.50;99.90;;;;;;5037817;28;20029;-77
2021/06/25 10:46:38;;;;;;;0.95;0.95;;;18.60;99.90;;;;;;5053976;28;20036;-74
2021/06/25 10:49:08;;;;;;;0.90;0.90;;;18.60;99.90;;;;;;5054041;28;20475;-74
2021/06/25 10:51:38;;;;;;;1.20;1.20;;;18.50;99.90;;;;;;5052782;28;20040;-76
2021/06/25 10:54:14;;;;;;;2.00;0.85;;;18.40;99.90;;;;;;5053860;28;20406;-75
2021/06/25 10:56:48;;;;;;;1.08;1.08;;;18.30;99.90;;;;;;5053623;28;20391;-74
2021/06/25 10:59:27;;;;;;;79.55;10.20;;;18.30;99.90;;;;;;5035876;28;20021;-73
2021/06/25 11:02:12;;;;;;;35.47;3.80;;;18.30;99.90;;;;;;5053339;28;20032;-75
2021/06/25 11:04:38;;;;;;;255.05;27.75;;;18.50;99.90;;;;;;5053458;28;20025;-76
2021/06/25 11:07:17;;;;;;;37.22;3.40;;;18.70;99.90;;;;;;5053434;28;20028;-74
2021/06/25 11:09:52;;;;;;;5.05;0.88;;;18.90;99.90;;;;;;5034798;28;20040;-76
2021/06/25 11:12:25;;;;;;;4.57;1.08;;;18.90;99.90;;;;;;5035083;28;20047;-74
2021/06/25 11:14:54;;;;;;;1.65;0.70;;;19.20;99.90;;;;;;5053502;28;20021;-74
2021/06/25 11:17:55;;;;;;;3.80;1.50;;;19.30;99.90;;;;;;5053009;28;20391;-74
2021/06/25 11:20:33;;;;;;;1.85;0.80;;;19.50;99.90;;;;;;5052776;28;20020;-75
2021/06/25 11:23:09;;;;;;;0.88;0.88;;;19.50;99.90;;;;;;5053525;28;20029;-75
2021/06/25 11:25:36;;;;;;;0.90;0.90;;;19.20;99.90;;;;;;5038161;28;20025;-75
2021/06/25 11:28:20;;;;;;;2.58;0.88;;;19.40;99.90;;;;;;5052599;28;20025;-76
2021/06/25 11:30:56;;;;;;;2.72;0.90;;;19.50;99.90;;;;;;5039372;28;20490;-76
2021/06/25 11:33:25;;;;;;;1.08;0.90;;;19.40;99.90;;;;;;5052296;28;20104;-76
2021/06/25 11:35:51;;;;;;;0.85;0.70;;;19.50;99.90;;;;;;5053004;28;20447;-75
2021/06/25 11:38:16;;;;;;;1.92;1.20;;;19.70;99.90;;;;;;5053126;28;20603;-76
2021/06/25 11:40:47;;;;;;;1.20;1.10;;;19.90;99.90;;;;;;5052346;28;20025;-75
2021/06/25 11:43:18;;;;;;;0.98;0.98;;;19.90;99.90;;;;;;5052805;28;20020;-75
2021/06/25 11:45:49;;;;;;;5.60;1.23;;;20.00;99.90;;;;;;5052885;28;20021;-76
2021/06/25 11:48:16;;;;;;;1.02;0.95;;;20.10;99.90;;;;;;5052932;28;20032;-76
2021/06/25 11:50:41;;;;;;;2.13;0.80;;;20.40;99.90;;;;;;5052821;28;20026;-76
2021/06/25 11:53:08;;;;;;;0.95;0.95;;;20.60;99.90;;;;;;5053805;28;20399;-76
2021/06/25 11:55:33;;;;;;;1.08;1.05;;;20.90;99.90;;;;;;5053705;28;20021;-77
2021/06/25 11:57:59;;;;;;;3.42;1.20;;;20.30;99.90;;;;;;5053448;28;20039;-77
2021/06/25 12:00:27;;;;;;;1.98;1.35;;;20.40;99.90;;;;;;5053642;28;20387;-77
2021/06/25 12:02:56;;;;;;;1.25;1.20;;;20.10;99.90;;;;;;5053182;28;20028;-75
2021/06/25 12:05:32;;;;;;;1.60;1.27;;;20.40;99.90;;;;;;5053044;28;20029;-75
2021/06/25 12:08:06;;;;;;;1.20;1.10;;;20.70;99.90;;;;;;5052928;28;20581;-77
2021/06/25 12:10:32;;;;;;;69.15;8.88;;;21.30;99.90;;;;;;5051809;28;20024;-76
2021/06/25 12:13:00;;;;;;;29.70;4.60;;;21.50;99.90;;;;;;5052430;28;20017;-76
2021/06/25 12:15:27;;;;;;;57.35;7.60;;;21.60;99.90;;;;;;5052715;28;20379;-75
2021/06/25 12:17:57;;;;;;;3.92;2.00;;;21.60;99.90;;;;;;5052315;28;20130;-76
2021/06/25 12:20:28;;;;;;;5.85;1.40;;;22.30;99.90;;;;;;5046286;28;20049;-75
2021/06/25 12:23:05;;;;;;;1.45;1.35;;;22.30;99.90;;;;;;5052285;28;20051;-76
2021/06/25 12:25:45;;;;;;;1.00;1.00;;;23.00;99.90;;;;;;5052316;28;20379;-76
2021/06/25 12:28:19;;;;;;;1.00;1.00;;;23.20;99.90;;;;;;5051050;28;20376;-76
2021/06/25 12:30:48;;;;;;;1.80;1.05;;;24.30;99.90;;;;;;5050200;28;20025;-76
2021/06/25 12:33:16;;;;;;;1.10;1.00;;;25.30;99.90;;;;;;5051778;28;20025;-75
2021/06/25 12:35:49;;;;;;;1.30;1.00;;;25.00;99.90;;;;;;5052114;28;20017;-75
2021/06/25 12:38:17;;;;;;;1.10;1.10;;;24.10;99.90;;;;;;5051999;28;20031;-75
2021/06/25 12:40:52;;;;;;;1.40;1.30;;;22.50;99.90;;;;;;5051363;28;20360;-74
2021/06/25 12:43:31;;;;;;;1.63;1.52;;;22.50;99.90;;;;;;5031542;28;20025;-75
2021/06/25 12:46:11;;;;;;;1.20;1.10;;;22.80;99.90;;;;;;5031692;28;20100;-74
2021/06/25 12:48:55;;;;;;;1.23;1.23;;;23.10;99.90;;;;;;5031572;28;20487;-75
2021/06/25 12:51:22;;;;;;;1.95;0.88;;;23.10;99.90;;;;;;5030815;28;20132;-76
2021/06/25 12:53:49;;;;;;;1.48;1.38;;;23.30;99.90;;;;;;5030720;28;20476;-76
2021/06/25 12:56:19;;;;;;;1.33;1.27;;;23.50;99.90;;;;;;5031534;28;20021;-74
2021/06/25 12:58:48;;;;;;;2.05;1.63;;;23.10;99.90;;;;;;5031492;28;20101;-75
2021/06/25 13:01:14;;;;;;;1.48;1.40;;;21.70;99.90;;;;;;5030958;28;20111;-74